Knight Air

Knight Air knights of the virtual airways


 METAR AND TAF INFORMATION
METAR FOR GCXO
ADDS - METARS form results

(0114 UTC 31 March 2020)
Data provider http://aviationweather.gov/metar/data/
 
METAR text: GCXO 310100Z AUTO 27011KT 9999 FEW019 13/12 Q1014
Conditions at: GCXO (TENERIFE/LOS ROD, ES) observed 0100 UTC 31 March 2020
Temperature: 13.0°C (55°F)
Dewpoint: 12.0°C (54°F) [RH = 94%]
Pressure (altimeter): 29.94 inches Hg (1014.0 mb)
Winds: from the W (270 degrees) at 13 MPH (11 knots; 5.7 m/s)
Visibility: 6 or more miles (10+ km)
Ceiling: at least 12,000 feet AGL
Clouds: few clouds at 1900 feet AGL
Weather: no significant weather observed at this time

METAR text: GCXO 310030Z AUTO 28012KT 9999 SCT019 13/12 Q1015
Conditions at: GCXO (TENERIFE/LOS ROD, ES) observed 0030 UTC 31 March 2020
Temperature: 13.0°C (55°F)
Dewpoint: 12.0°C (54°F) [RH = 94%]
Pressure (altimeter): 29.97 inches Hg (1015.0 mb)
Winds: from the W (280 degrees) at 14 MPH (12 knots; 6.2 m/s)
Visibility: 6 or more miles (10+ km)
Ceiling: at least 12,000 feet AGL
Clouds: scattered clouds at 1900 feet AGL
Weather: no significant weather observed at this time

Forecast for: AMD
Text: TAF AMD GCXO 302102Z 3021/3121 29011KT 9999 BKN015 TX18/3113Z TN12/3106Z
Forecast period: 2100 UTC 30 March 2020 to 2100 UTC 31 March 2020
Forecast type: FROM: standard forecast or significant change
Winds: from the WNW (290 degrees) at 13 MPH (11 knots; 5.7 m/s)
Visibility: 6 or more miles 10+ km)
Ceiling: 1500 feet AGL
Clouds: broken clouds at 1500 feet AGL
Weather: no significant weather forecast for this period
Text: TEMPO 3021/3106 DZ BKN008
Forecast period: 2100 UTC 30 March 2020 to 0600 UTC 31 March 2020
Forecast type: TEMPORARY: The following changes expected for less than half the time period
Visibility: missing
Ceiling: 800 feet AGL
Clouds: broken clouds at 800 feet AGL
Weather: DZ  (moderate drizzle)
Text: PROB30
Forecast period: 2100 UTC 30 March 2020 to 0600 UTC 31 March 2020
Forecast type: TEMPORARY: The following changes expected for less than half the time period
Visibility: 1.24 miles (2.00 km)
Ceiling: 400 feet AGL
Clouds: broken clouds at 400 feet AGL
Weather: BCFG  (patches of fog)

 AIRPORT MAP

 RUNWAY INFORMATION
Runway 12 Runway length 11155 ft Runway width 148 ft
Runway elevation 2060 ft Runway displaced threshold 0 ft Runway heading 111
Runway 30 Runway length 11155 ft Runway width 148 ft
Runway elevation 2002 ft Runway displaced threshold 0 ft Runway heading 291

 AIRPORT FREQUENCIES
Type APP Name APP Frequency 119.7 MHZ
Type ATIS Name ATIS Frequency 118.575 MHZ
Type GND Name GND Frequency 121.7 MHZ
Type TWR Name TWR Frequency 118.7 MHZ

 AIRPORT NEAR NAVIGATION AIDS
Type VOR-DME Name Tenerife Norte Frequency 117700 KHZ
Type NDB Name Tenerife Norte Frequency 410 KHZ